Terminal Aerodrome Forecast
Issued by NWS

Home | Current Version | Previous Version | Text Only | Print | Product List | Glossary Off
Versions: 1 2 3 4 5 6 7 8 9 10 11 12 13 14

000
FTUS43 KPAH 010600 AAA
TAFCGI
TAF AMD
KCGI 010616Z 0106/0206 00000KT 5SM BR FEW250
     FM010800 00000KT 2SM BR SCT100
      TEMPO 0108/0112 1/2SM FG SCT002
     FM011200 00000KT 4SM BR SCT100
     FM011400 07005KT P6SM SCT050=

USA.gov is the U.S. government's official web portal to all federal, state and local government web resources and services.